sensor_id;sensor_type;location;lat;lon;timestamp;pressure;altitude;pressure_sealevel;temperature;humidity
75317;BME280;63913;51.492;10.368;2023-09-30T00:02:06;99110.31;;;15.24;90.60
75317;BME280;63913;51.492;10.368;2023-09-30T00:04:32;99121.53;;;15.22;90.00
75317;BME280;63913;51.492;10.368;2023-09-30T00:07:03;99118.97;;;15.23;91.55
75317;BME280;63913;51.492;10.368;2023-09-30T00:09:29;99130.03;;;15.12;91.27
75317;BME280;63913;51.492;10.368;2023-09-30T00:11:55;99136.97;;;15.14;91.60
75317;BME280;63913;51.492;10.368;2023-09-30T00:14:21;99141.31;;;15.15;91.64
75317;BME280;63913;51.492;10.368;2023-09-30T00:16:46;99148.13;;;15.10;91.96
75317;BME280;63913;51.492;10.368;2023-09-30T00:19:12;99141.94;;;15.01;91.70
75317;BME280;63913;51.492;10.368;2023-09-30T00:21:39;99140.28;;;15.04;91.94
75317;BME280;63913;51.492;10.368;2023-09-30T00:24:06;99139.44;;;15.05;91.87
75317;BME280;63913;51.492;10.368;2023-09-30T00:26:33;99138.44;;;14.97;91.26
75317;BME280;63913;51.492;10.368;2023-09-30T00:28:58;99143.72;;;15.03;91.64
75317;BME280;63913;51.492;10.368;2023-09-30T00:31:23;99140.88;;;14.86;91.51
75317;BME280;63913;51.492;10.368;2023-09-30T00:33:49;99153.00;;;14.89;91.43
75317;BME280;63913;51.492;10.368;2023-09-30T00:36:15;99167.72;;;14.92;91.76
75317;BME280;63913;51.492;10.368;2023-09-30T00:38:40;99162.53;;;14.93;91.88
75317;BME280;63913;51.492;10.368;2023-09-30T00:41:07;99161.56;;;14.83;91.95
75317;BME280;63913;51.492;10.368;2023-09-30T00:43:33;99177.06;;;14.82;91.67
75317;BME280;63913;51.492;10.368;2023-09-30T00:46:02;99177.94;;;14.84;92.28
75317;BME280;63913;51.492;10.368;2023-09-30T00:48:34;99173.50;;;14.75;91.16
75317;BME280;63913;51.492;10.368;2023-09-30T00:51:00;99175.25;;;14.78;91.66
75317;BME280;63913;51.492;10.368;2023-09-30T00:53:35;99175.25;;;14.78;92.64
75317;BME280;63913;51.492;10.368;2023-09-30T00:56:01;99176.97;;;14.77;90.17
75317;BME280;63913;51.492;10.368;2023-09-30T00:58:28;99178.63;;;14.72;91.03
75317;BME280;63913;51.492;10.368;2023-09-30T01:00:56;99183.81;;;14.74;91.43
75317;BME280;63913;51.492;10.368;2023-09-30T01:03:23;99176.84;;;14.70;91.38
75317;BME280;63913;51.492;10.368;2023-09-30T01:05:49;99183.69;;;14.66;90.58
75317;BME280;63913;51.492;10.368;2023-09-30T01:08:16;99183.78;;;14.72;90.57
75317;BME280;63913;51.492;10.368;2023-09-30T01:10:42;99176.72;;;14.62;90.74
75317;BME280;63913;51.492;10.368;2023-09-30T01:13:11;99165.53;;;14.63;90.81
75317;BME280;63913;51.492;10.368;2023-09-30T01:15:36;99166.31;;;14.61;92.03
75317;BME280;63913;51.492;10.368;2023-09-30T01:18:03;99177.50;;;14.57;90.58
75317;BME280;63913;51.492;10.368;2023-09-30T01:20:28;99191.28;;;14.56;90.41
75317;BME280;63913;51.492;10.368;2023-09-30T01:22:56;99200.72;;;14.54;91.73
75317;BME280;63913;51.492;10.368;2023-09-30T01:25:22;99192.81;;;14.46;92.21
75317;BME280;63913;51.492;10.368;2023-09-30T01:27:48;99188.50;;;14.46;92.00
75317;BME280;63913;51.492;10.368;2023-09-30T01:30:13;99195.47;;;14.49;91.60
75317;BME280;63913;51.492;10.368;2023-09-30T01:32:39;99192.94;;;14.54;90.79
75317;BME280;63913;51.492;10.368;2023-09-30T01:35:05;99190.88;;;14.36;90.43
75317;BME280;63913;51.492;10.368;2023-09-30T01:37:32;99194.31;;;14.35;90.29
75317;BME280;63913;51.492;10.368;2023-09-30T01:39:58;99195.94;;;14.30;91.03
75317;BME280;63913;51.492;10.368;2023-09-30T01:42:23;99218.31;;;14.28;89.49
75317;BME280;63913;51.492;10.368;2023-09-30T01:44:50;99212.06;;;14.17;90.08
75317;BME280;63913;51.492;10.368;2023-09-30T01:47:15;99217.25;;;14.17;90.87
75317;BME280;63913;51.492;10.368;2023-09-30T01:49:40;99222.34;;;14.13;89.71
75317;BME280;63913;51.492;10.368;2023-09-30T01:52:06;99231.59;;;14.01;89.76
75317;BME280;63913;51.492;10.368;2023-09-30T01:54:31;99232.59;;;14.07;90.65
75317;BME280;63913;51.492;10.368;2023-09-30T01:56:58;99233.34;;;14.02;90.67
75317;BME280;63913;51.492;10.368;2023-09-30T01:59:24;99222.72;;;13.90;90.08
75317;BME280;63913;51.492;10.368;2023-09-30T02:01:49;99210.47;;;13.81;90.57
75317;BME280;63913;51.492;10.368;2023-09-30T02:04:16;99214.91;;;13.87;89.71
75317;BME280;63913;51.492;10.368;2023-09-30T02:06:43;99220.81;;;13.81;89.57
75317;BME280;63913;51.492;10.368;2023-09-30T02:09:09;99217.16;;;13.71;90.47
75317;BME280;63913;51.492;10.368;2023-09-30T02:11:35;99225.88;;;13.75;88.70
75317;BME280;63913;51.492;10.368;2023-09-30T02:14:07;99216.22;;;13.66;88.98
75317;BME280;63913;51.492;10.368;2023-09-30T02:16:32;99232.63;;;13.68;89.36
75317;BME280;63913;51.492;10.368;2023-09-30T02:18:58;99239.59;;;13.72;88.67
75317;BME280;63913;51.492;10.368;2023-09-30T02:21:24;99230.75;;;13.61;89.40
75317;BME280;63913;51.492;10.368;2023-09-30T02:23:49;99228.00;;;13.54;88.85
75317;BME280;63913;51.492;10.368;2023-09-30T02:26:15;99236.59;;;13.53;88.47
75317;BME280;63913;51.492;10.368;2023-09-30T02:28:41;99239.88;;;13.46;88.24
75317;BME280;63913;51.492;10.368;2023-09-30T02:31:06;99236.97;;;13.32;88.01
75317;BME280;63913;51.492;10.368;2023-09-30T02:33:34;99248.97;;;13.30;87.23
75317;BME280;63913;51.492;10.368;2023-09-30T02:36:07;99263.03;;;13.08;87.88
75317;BME280;63913;51.492;10.368;2023-09-30T02:38:32;99257.03;;;13.09;89.21
75317;BME280;63913;51.492;10.368;2023-09-30T02:41:00;99253.53;;;13.07;90.64
75317;BME280;63913;51.492;10.368;2023-09-30T02:43:28;99245.13;;;13.14;91.88
75317;BME280;63913;51.492;10.368;2023-09-30T02:45:55;99252.97;;;13.17;88.97
75317;BME280;63913;51.492;10.368;2023-09-30T02:48:20;99249.78;;;13.27;90.47
75317;BME280;63913;51.492;10.368;2023-09-30T02:50:46;99240.41;;;13.32;90.05
75317;BME280;63913;51.492;10.368;2023-09-30T02:53:11;99242.94;;;13.29;87.92
75317;BME280;63913;51.492;10.368;2023-09-30T02:55:38;99247.25;;;13.30;89.73
75317;BME280;63913;51.492;10.368;2023-09-30T02:58:04;99252.97;;;13.17;89.31
75317;BME280;63913;51.492;10.368;2023-09-30T03:00:29;99261.88;;;13.28;89.51
75317;BME280;63913;51.492;10.368;2023-09-30T03:03:00;99248.94;;;13.28;89.60
75317;BME280;63913;51.492;10.368;2023-09-30T03:05:27;99255.59;;;13.19;89.12
75317;BME280;63913;51.492;10.368;2023-09-30T03:07:53;99247.75;;;13.16;88.36
75317;BME280;63913;51.492;10.368;2023-09-30T03:10:20;99248.47;;;13.10;87.49
75317;BME280;63913;51.492;10.368;2023-09-30T03:12:51;99256.09;;;13.06;87.97
75317;BME280;63913;51.492;10.368;2023-09-30T03:15:17;99256.84;;;13.02;87.93
75317;BME280;63913;51.492;10.368;2023-09-30T03:17:43;99256.66;;;12.94;87.46
75317;BME280;63913;51.492;10.368;2023-09-30T03:20:09;99245.19;;;12.83;88.16
75317;BME280;63913;51.492;10.368;2023-09-30T03:22:40;99239.84;;;12.75;88.40
75317;BME280;63913;51.492;10.368;2023-09-30T03:25:06;99238.03;;;12.71;89.29
75317;BME280;63913;51.492;10.368;2023-09-30T03:27:41;99236.13;;;12.64;89.23
75317;BME280;63913;51.492;10.368;2023-09-30T03:30:07;99241.19;;;12.61;89.31
75317;BME280;63913;51.492;10.368;2023-09-30T03:32:34;99245.88;;;12.43;88.53
75317;BME280;63913;51.492;10.368;2023-09-30T03:35:05;99247.00;;;12.52;88.38
75317;BME280;63913;51.492;10.368;2023-09-30T03:37:31;99257.19;;;12.48;88.64
75317;BME280;63913;51.492;10.368;2023-09-30T03:39:57;99239.16;;;12.48;87.85
75317;BME280;63913;51.492;10.368;2023-09-30T03:42:23;99254.72;;;12.52;88.30
75317;BME280;63913;51.492;10.368;2023-09-30T03:44:49;99265.84;;;12.50;87.35
75317;BME280;63913;51.492;10.368;2023-09-30T03:47:15;99273.41;;;12.44;89.11
75317;BME280;63913;51.492;10.368;2023-09-30T03:49:42;99268.22;;;12.42;88.29
75317;BME280;63913;51.492;10.368;2023-09-30T03:52:11;99269.09;;;12.43;88.04
75317;BME280;63913;51.492;10.368;2023-09-30T03:54:38;99262.84;;;12.35;88.87
75317;BME280;63913;51.492;10.368;2023-09-30T03:57:03;99262.88;;;12.36;88.64
75317;BME280;63913;51.492;10.368;2023-09-30T03:59:29;99267.94;;;12.32;89.35
75317;BME280;63913;51.492;10.368;2023-09-30T04:01:56;99268.75;;;12.31;89.63
75317;BME280;63913;51.492;10.368;2023-09-30T04:04:23;99266.09;;;12.28;89.20
75317;BME280;63913;51.492;10.368;2023-09-30T04:06:50;99260.16;;;12.30;89.05
75317;BME280;63913;51.492;10.368;2023-09-30T04:09:17;99265.16;;;12.26;89.15
75317;BME280;63913;51.492;10.368;2023-09-30T04:11:43;99270.91;;;12.15;89.40
75317;BME280;63913;51.492;10.368;2023-09-30T04:14:09;99272.03;;;12.25;89.26
75317;BME280;63913;51.492;10.368;2023-09-30T04:16:35;99270.31;;;12.26;89.58
75317;BME280;63913;51.492;10.368;2023-09-30T04:19:03;99296.09;;;12.24;89.80
75317;BME280;63913;51.492;10.368;2023-09-30T04:21:30;99309.34;;;12.38;90.74
75317;BME280;63913;51.492;10.368;2023-09-30T04:23:59;99302.75;;;12.47;91.43
75317;BME280;63913;51.492;10.368;2023-09-30T04:26:24;99293.31;;;12.48;91.10
75317;BME280;63913;51.492;10.368;2023-09-30T04:28:52;99288.16;;;12.49;90.84
75317;BME280;63913;51.492;10.368;2023-09-30T04:31:19;99282.38;;;12.58;90.96
75317;BME280;63913;51.492;10.368;2023-09-30T04:33:47;99275.72;;;12.65;89.48
75317;BME280;63913;51.492;10.368;2023-09-30T04:36:12;99277.16;;;12.55;89.50
75317;BME280;63913;51.492;10.368;2023-09-30T04:38:40;99279.59;;;12.50;89.22
75317;BME280;63913;51.492;10.368;2023-09-30T04:41:06;99284.75;;;12.50;89.59
75317;BME280;63913;51.492;10.368;2023-09-30T04:43:35;99289.50;;;12.35;89.88
75317;BME280;63913;51.492;10.368;2023-09-30T04:46:06;99299.78;;;12.34;89.87
75317;BME280;63913;51.492;10.368;2023-09-30T04:48:33;99290.00;;;12.22;90.42
75317;BME280;63913;51.492;10.368;2023-09-30T04:50:59;99304.84;;;12.31;90.46
75317;BME280;63913;51.492;10.368;2023-09-30T04:53:25;99300.44;;;12.27;90.52
75317;BME280;63913;51.492;10.368;2023-09-30T04:55:51;99298.03;;;12.33;89.59
75317;BME280;63913;51.492;10.368;2023-09-30T04:58:17;99308.09;;;12.23;89.94
75317;BME280;63913;51.492;10.368;2023-09-30T05:00:42;99314.19;;;12.27;90.00
75317;BME280;63913;51.492;10.368;2023-09-30T05:03:08;99302.28;;;12.31;89.82
75317;BME280;63913;51.492;10.368;2023-09-30T05:05:34;99317.72;;;12.29;88.89
75317;BME280;63913;51.492;10.368;2023-09-30T05:08:00;99316.66;;;12.22;89.53
75317;BME280;63913;51.492;10.368;2023-09-30T05:10:27;99325.06;;;12.15;89.57
75317;BME280;63913;51.492;10.368;2023-09-30T05:12:52;99330.28;;;12.18;89.54
75317;BME280;63913;51.492;10.368;2023-09-30T05:15:20;99319.03;;;12.16;90.73
75317;BME280;63913;51.492;10.368;2023-09-30T05:17:48;99321.38;;;12.07;91.02
75317;BME280;63913;51.492;10.368;2023-09-30T05:20:14;99331.94;;;12.16;91.29
75317;BME280;63913;51.492;10.368;2023-09-30T05:22:43;99328.69;;;12.22;92.00
75317;BME280;63913;51.492;10.368;2023-09-30T05:25:13;99341.63;;;12.25;91.40
75317;BME280;63913;51.492;10.368;2023-09-30T05:27:45;99336.25;;;12.17;91.95
75317;BME280;63913;51.492;10.368;2023-09-30T05:30:13;99340.03;;;12.29;92.20
75317;BME280;63913;51.492;10.368;2023-09-30T05:32:40;99324.47;;;12.26;92.26
75317;BME280;63913;51.492;10.368;2023-09-30T05:35:06;99325.50;;;12.31;92.95
75317;BME280;63913;51.492;10.368;2023-09-30T05:37:39;99326.38;;;12.33;92.33
75317;BME280;63913;51.492;10.368;2023-09-30T05:40:06;99325.50;;;12.31;93.33
75317;BME280;63913;51.492;10.368;2023-09-30T05:42:43;99332.41;;;12.32;93.11
75317;BME280;63913;51.492;10.368;2023-09-30T05:45:11;99330.16;;;12.44;92.77
75317;BME280;63913;51.492;10.368;2023-09-30T05:47:40;99326.84;;;12.48;92.33
75317;BME280;63913;51.492;10.368;2023-09-30T05:50:08;99329.53;;;12.52;92.88
75317;BME280;63913;51.492;10.368;2023-09-30T05:52:34;99338.41;;;12.62;93.06
75317;BME280;63913;51.492;10.368;2023-09-30T05:55:02;99352.41;;;12.70;92.49
75317;BME280;63913;51.492;10.368;2023-09-30T05:57:28;99352.72;;;12.82;92.08
75317;BME280;63913;51.492;10.368;2023-09-30T05:59:54;99357.81;;;12.79;91.47
75317;BME280;63913;51.492;10.368;2023-09-30T06:02:19;99359.78;;;12.88;91.50
75317;BME280;63913;51.492;10.368;2023-09-30T06:04:45;99352.03;;;12.89;91.68
75317;BME280;63913;51.492;10.368;2023-09-30T06:07:11;99351.41;;;12.98;92.09
75317;BME280;63913;51.492;10.368;2023-09-30T06:09:38;99364.47;;;13.03;91.16
75317;BME280;63913;51.492;10.368;2023-09-30T06:12:04;99353.06;;;12.94;92.30
75317;BME280;63913;51.492;10.368;2023-09-30T06:14:34;99357.53;;;13.02;91.43
75317;BME280;63913;51.492;10.368;2023-09-30T06:17:01;99347.91;;;12.94;92.46
75317;BME280;63913;51.492;10.368;2023-09-30T06:19:28;99343.66;;;12.96;92.04
75317;BME280;63913;51.492;10.368;2023-09-30T06:21:54;99342.97;;;13.04;92.08
75317;BME280;63913;51.492;10.368;2023-09-30T06:24:19;99351.59;;;13.06;92.48
75317;BME280;63913;51.492;10.368;2023-09-30T06:26:46;99351.78;;;13.12;91.62
75317;BME280;63913;51.492;10.368;2023-09-30T06:29:14;99342.38;;;13.14;91.08
75317;BME280;63913;51.492;10.368;2023-09-30T06:31:39;99339.84;;;13.15;90.89
75317;BME280;63913;51.492;10.368;2023-09-30T06:34:05;99345.22;;;13.23;90.42
75317;BME280;63913;51.492;10.368;2023-09-30T06:36:33;99353.97;;;13.28;90.57
75317;BME280;63913;51.492;10.368;2023-09-30T06:38:58;99355.63;;;13.26;89.90
75317;BME280;63913;51.492;10.368;2023-09-30T06:41:24;99358.94;;;13.22;90.63
75317;BME280;63913;51.492;10.368;2023-09-30T06:43:51;99370.25;;;13.25;90.24
75317;BME280;63913;51.492;10.368;2023-09-30T06:46:17;99369.47;;;13.28;90.65
75317;BME280;63913;51.492;10.368;2023-09-30T06:48:42;99375.31;;;13.21;90.28
75317;BME280;63913;51.492;10.368;2023-09-30T06:51:13;99384.91;;;13.26;90.82
75317;BME280;63913;51.492;10.368;2023-09-30T06:53:40;99398.84;;;13.33;90.79
75317;BME280;63913;51.492;10.368;2023-09-30T06:56:05;99398.91;;;13.34;89.37
75317;BME280;63913;51.492;10.368;2023-09-30T06:58:33;99387.72;;;13.35;90.29
75317;BME280;63913;51.492;10.368;2023-09-30T07:01:02;99395.41;;;13.32;90.01
75317;BME280;63913;51.492;10.368;2023-09-30T07:03:27;99399.91;;;13.41;89.97
75317;BME280;63913;51.492;10.368;2023-09-30T07:05:53;99402.50;;;13.41;89.57
75317;BME280;63913;51.492;10.368;2023-09-30T07:08:19;99404.22;;;13.41;89.50
75317;BME280;63913;51.492;10.368;2023-09-30T07:10:46;99403.44;;;13.43;90.33
75317;BME280;63913;51.492;10.368;2023-09-30T07:13:12;99417.13;;;13.41;89.59
75317;BME280;63913;51.492;10.368;2023-09-30T07:15:37;99413.00;;;13.47;90.17
75317;BME280;63913;51.492;10.368;2023-09-30T07:18:03;99426.00;;;13.50;89.29
75317;BME280;63913;51.492;10.368;2023-09-30T07:20:28;99420.78;;;13.49;89.13
75317;BME280;63913;51.492;10.368;2023-09-30T07:22:59;99418.25;;;13.50;89.08
75317;BME280;63913;51.492;10.368;2023-09-30T07:25:24;99420.00;;;13.51;88.56
75317;BME280;63913;51.492;10.368;2023-09-30T07:27:50;99411.22;;;13.46;87.61
75317;BME280;63913;51.492;10.368;2023-09-30T07:30:16;99414.78;;;13.50;88.44
75317;BME280;63913;51.492;10.368;2023-09-30T07:32:43;99427.91;;;13.57;88.52
75317;BME280;63913;51.492;10.368;2023-09-30T07:35:09;99419.13;;;13.51;89.06
75317;BME280;63913;51.492;10.368;2023-09-30T07:37:36;99419.84;;;13.45;89.00
75317;BME280;63913;51.492;10.368;2023-09-30T07:40:01;99435.41;;;13.48;88.48
75317;BME280;63913;51.492;10.368;2023-09-30T07:42:28;99437.31;;;13.55;88.53
75317;BME280;63913;51.492;10.368;2023-09-30T07:44:54;99442.41;;;13.52;88.43
75317;BME280;63913;51.492;10.368;2023-09-30T07:47:19;99441.53;;;13.52;87.59
75317;BME280;63913;51.492;10.368;2023-09-30T07:49:45;99432.19;;;13.57;88.30
75317;BME280;63913;51.492;10.368;2023-09-30T07:52:11;99434.78;;;13.57;88.27
75317;BME280;63913;51.492;10.368;2023-09-30T07:54:37;99434.84;;;13.60;88.05
75317;BME280;63913;51.492;10.368;2023-09-30T07:57:02;99442.66;;;13.63;87.79
75317;BME280;63913;51.492;10.368;2023-09-30T07:59:27;99461.00;;;13.72;87.08
75317;BME280;63913;51.492;10.368;2023-09-30T08:01:53;99453.34;;;13.75;87.68
75317;BME280;63913;51.492;10.368;2023-09-30T08:04:21;99455.00;;;13.73;86.98
75317;BME280;63913;51.492;10.368;2023-09-30T08:06:49;99451.47;;;13.69;86.63
75317;BME280;63913;51.492;10.368;2023-09-30T08:09:16;99456.59;;;13.68;86.35
75317;BME280;63913;51.492;10.368;2023-09-30T08:11:44;99447.38;;;13.79;85.93
75317;BME280;63913;51.492;10.368;2023-09-30T08:14:11;99462.88;;;13.78;86.03
75317;BME280;63913;51.492;10.368;2023-09-30T08:16:36;99465.41;;;13.76;86.34
75317;BME280;63913;51.492;10.368;2023-09-30T08:19:02;99462.19;;;13.85;85.60
75317;BME280;63913;51.492;10.368;2023-09-30T08:21:29;99457.06;;;13.86;85.06
75317;BME280;63913;51.492;10.368;2023-09-30T08:23:55;99459.72;;;13.89;85.46
75317;BME280;63913;51.492;10.368;2023-09-30T08:26:20;99452.81;;;13.90;85.38
75317;BME280;63913;51.492;10.368;2023-09-30T08:28:46;99454.72;;;13.97;86.17
75317;BME280;63913;51.492;10.368;2023-09-30T08:31:11;99461.81;;;14.05;86.01
75317;BME280;63913;51.492;10.368;2023-09-30T08:33:37;99461.16;;;14.14;84.95
75317;BME280;63913;51.492;10.368;2023-09-30T08:36:05;99465.06;;;14.33;85.61
75317;BME280;63913;51.492;10.368;2023-09-30T08:38:34;99466.16;;;14.41;85.32
75317;BME280;63913;51.492;10.368;2023-09-30T08:41:00;99467.16;;;14.47;84.80
75317;BME280;63913;51.492;10.368;2023-09-30T08:43:27;99469.06;;;14.56;84.99
75317;BME280;63913;51.492;10.368;2023-09-30T08:45:56;99464.19;;;14.70;85.21
75317;BME280;63913;51.492;10.368;2023-09-30T08:48:23;99464.38;;;14.79;83.21
75317;BME280;63913;51.492;10.368;2023-09-30T08:50:50;99461.06;;;14.86;83.36
75317;BME280;63913;51.492;10.368;2023-09-30T08:53:16;99470.50;;;14.82;81.39
75317;BME280;63913;51.492;10.368;2023-09-30T08:55:43;99468.94;;;14.91;81.80
75317;BME280;63913;51.492;10.368;2023-09-30T08:58:11;99460.16;;;14.84;81.21
75317;BME280;63913;51.492;10.368;2023-09-30T09:00:38;99461.03;;;14.84;82.11
75317;BME280;63913;51.492;10.368;2023-09-30T09:03:08;99466.47;;;14.97;80.68
75317;BME280;63913;51.492;10.368;2023-09-30T09:05:34;99472.50;;;14.96;79.25
75317;BME280;63913;51.492;10.368;2023-09-30T09:07:59;99473.53;;;15.04;78.59
75317;BME280;63913;51.492;10.368;2023-09-30T09:10:24;99469.28;;;15.07;78.03
75317;BME280;63913;51.492;10.368;2023-09-30T09:12:57;99480.72;;;15.18;79.07
75317;BME280;63913;51.492;10.368;2023-09-30T09:15:25;99475.44;;;15.56;77.77
75317;BME280;63913;51.492;10.368;2023-09-30T09:17:51;99478.91;;;16.08;73.66
75317;BME280;63913;51.492;10.368;2023-09-30T09:20:22;99478.78;;;16.57;70.03
75317;BME280;63913;51.492;10.368;2023-09-30T09:22:50;99467.31;;;17.02;69.68
75317;BME280;63913;51.492;10.368;2023-09-30T09:25:18;99476.28;;;17.31;65.61
75317;BME280;63913;51.492;10.368;2023-09-30T09:27:44;99475.97;;;17.81;65.58
75317;BME280;63913;51.492;10.368;2023-09-30T09:30:16;99475.47;;;18.29;64.40
75317;BME280;63913;51.492;10.368;2023-09-30T09:33:01;99474.84;;;18.65;62.98
75317;BME280;63913;51.492;10.368;2023-09-30T09:35:28;99478.50;;;18.94;61.47
75317;BME280;63913;51.492;10.368;2023-09-30T09:40:23;99480.31;;;17.82;62.55
75317;BME280;63913;51.492;10.368;2023-09-30T09:42:51;99476.69;;;17.65;63.14
75317;BME280;63913;51.492;10.368;2023-09-30T09:45:21;99484.91;;;18.16;62.19
75317;BME280;63913;51.492;10.368;2023-09-30T09:47:48;99473.28;;;18.99;58.23
75317;BME280;63913;51.492;10.368;2023-09-30T09:50:14;99477.00;;;19.60;58.20
75317;BME280;63913;51.492;10.368;2023-09-30T09:52:42;99479.44;;;19.12;57.12
75317;BME280;63913;51.492;10.368;2023-09-30T09:55:10;99478.72;;;19.57;58.26
75317;BME280;63913;51.492;10.368;2023-09-30T09:57:37;99470.84;;;19.44;58.13
75317;BME280;63913;51.492;10.368;2023-09-30T10:00:04;99472.38;;;18.91;58.09
75317;BME280;63913;51.492;10.368;2023-09-30T10:02:39;99468.69;;;18.48;59.39
75317;BME280;63913;51.492;10.368;2023-09-30T10:05:04;99461.16;;;19.01;57.26
75317;BME280;63913;51.492;10.368;2023-09-30T10:07:36;99470.03;;;19.50;56.67
75317;BME280;63913;51.492;10.368;2023-09-30T10:10:07;99470.06;;;19.88;56.33
75317;BME280;63913;51.492;10.368;2023-09-30T10:12:38;99464.78;;;19.49;54.89
75317;BME280;63913;51.492;10.368;2023-09-30T10:20:39;99479.59;;;18.01;60.37
75317;BME280;63913;51.492;10.368;2023-09-30T10:28:46;99470.66;;;18.90;57.68
75317;BME280;63913;51.492;10.368;2023-09-30T10:31:21;99469.66;;;18.62;58.45
75317;BME280;63913;51.492;10.368;2023-09-30T10:38:57;99462.81;;;17.66;60.67
75317;BME280;63913;51.492;10.368;2023-09-30T10:46:54;99447.38;;;19.43;54.23
75317;BME280;63913;51.492;10.368;2023-09-30T10:51:51;99452.69;;;19.92;52.35
75317;BME280;63913;51.492;10.368;2023-09-30T10:54:25;99443.94;;;20.11;50.94
75317;BME280;63913;51.492;10.368;2023-09-30T10:56:51;99445.63;;;19.40;51.57
75317;BME280;63913;51.492;10.368;2023-09-30T10:59:22;99442.13;;;19.35;51.53
75317;BME280;63913;51.492;10.368;2023-09-30T11:01:49;99446.25;;;18.76;53.65
75317;BME280;63913;51.492;10.368;2023-09-30T11:04:15;99445.44;;;18.84;53.48
75317;BME280;63913;51.492;10.368;2023-09-30T11:06:42;99443.78;;;19.14;53.90
75317;BME280;63913;51.492;10.368;2023-09-30T11:09:08;99448.84;;;18.74;54.03
75317;BME280;63913;51.492;10.368;2023-09-30T11:11:43;99461.53;;;18.19;55.75
75317;BME280;63913;51.492;10.368;2023-09-30T11:14:22;99468.53;;;18.33;56.17
75317;BME280;63913;51.492;10.368;2023-09-30T11:16:51;99473.09;;;18.58;56.44
75317;BME280;63913;51.492;10.368;2023-09-30T11:19:16;99460.72;;;18.28;57.74
75317;BME280;63913;51.492;10.368;2023-09-30T11:21:42;99440.19;;;18.75;58.27
75317;BME280;63913;51.492;10.368;2023-09-30T11:24:13;99432.50;;;19.04;56.65
75317;BME280;63913;51.492;10.368;2023-09-30T11:26:39;99436.84;;;19.11;57.25
75317;BME280;63913;51.492;10.368;2023-09-30T11:31:31;99460.19;;;18.84;51.95
75317;BME280;63913;51.492;10.368;2023-09-30T11:34:00;99441.91;;;18.73;53.93
75317;BME280;63913;51.492;10.368;2023-09-30T11:36:31;99429.00;;;18.96;52.89
75317;BME280;63913;51.492;10.368;2023-09-30T11:38:58;99437.56;;;18.71;52.55
75317;BME280;63913;51.492;10.368;2023-09-30T11:41:32;99424.50;;;18.67;53.99
75317;BME280;63913;51.492;10.368;2023-09-30T11:44:11;99423.78;;;18.96;54.25
75317;BME280;63913;51.492;10.368;2023-09-30T11:49:36;99429.97;;;19.43;53.79
75317;BME280;63913;51.492;10.368;2023-09-30T11:52:10;99417.84;;;19.52;53.00
75317;BME280;63913;51.492;10.368;2023-09-30T11:54:43;99430.03;;;19.63;51.40
75317;BME280;63913;51.492;10.368;2023-09-30T11:57:13;99430.91;;;19.80;52.15
75317;BME280;63913;51.492;10.368;2023-09-30T11:59:40;99426.56;;;20.02;51.48
75317;BME280;63913;51.492;10.368;2023-09-30T12:02:07;99416.13;;;19.73;50.39
75317;BME280;63913;51.492;10.368;2023-09-30T12:04:34;99410.91;;;19.86;51.22
75317;BME280;63913;51.492;10.368;2023-09-30T12:07:00;99418.69;;;20.22;52.05
75317;BME280;63913;51.492;10.368;2023-09-30T12:09:26;99410.88;;;20.25;51.48
75317;BME280;63913;51.492;10.368;2023-09-30T12:11:53;99403.91;;;20.38;50.02
75317;BME280;63913;51.492;10.368;2023-09-30T12:14:19;99406.47;;;20.27;49.61
75317;BME280;63913;51.492;10.368;2023-09-30T12:16:46;99412.56;;;20.58;47.54
75317;BME280;63913;51.492;10.368;2023-09-30T12:19:13;99405.63;;;20.42;47.73
75317;BME280;63913;51.492;10.368;2023-09-30T12:21:39;99408.22;;;20.48;48.86
75317;BME280;63913;51.492;10.368;2023-09-30T12:24:06;99408.22;;;20.49;49.02
75317;BME280;63913;51.492;10.368;2023-09-30T12:26:33;99406.47;;;20.53;49.23
75317;BME280;63913;51.492;10.368;2023-09-30T12:28:58;99404.69;;;20.66;48.75
75317;BME280;63913;51.492;10.368;2023-09-30T12:31:24;99402.94;;;20.65;48.95
75317;BME280;63913;51.492;10.368;2023-09-30T12:33:50;99413.41;;;20.60;48.78
75317;BME280;63913;51.492;10.368;2023-09-30T12:36:21;99413.44;;;20.59;48.50
75317;BME280;63913;51.492;10.368;2023-09-30T12:38:49;99410.03;;;19.99;49.67
75317;BME280;63913;51.492;10.368;2023-09-30T12:41:15;99414.41;;;19.62;46.79
75317;BME280;63913;51.492;10.368;2023-09-30T12:43:40;99406.50;;;19.36;47.98
75317;BME280;63913;51.492;10.368;2023-09-30T12:46:08;99402.19;;;19.65;46.99
75317;BME280;63913;51.492;10.368;2023-09-30T12:48:34;99412.63;;;19.80;46.16
75317;BME280;63913;51.492;10.368;2023-09-30T12:51:00;99405.66;;;19.96;47.60
75317;BME280;63913;51.492;10.368;2023-09-30T12:53:25;99414.41;;;19.77;48.53
75317;BME280;63913;51.492;10.368;2023-09-30T12:55:51;99404.78;;;19.44;48.93
75317;BME280;63913;51.492;10.368;2023-09-30T12:58:17;99402.06;;;19.08;51.16
75317;BME280;63913;51.492;10.368;2023-09-30T13:00:42;99407.28;;;19.08;51.58
75317;BME280;63913;51.492;10.368;2023-09-30T13:03:08;99397.66;;;18.90;51.63
75317;BME280;63913;51.492;10.368;2023-09-30T13:05:33;99401.25;;;19.24;52.46
75317;BME280;63913;51.492;10.368;2023-09-30T13:07:59;99399.53;;;19.42;51.00
75317;BME280;63913;51.492;10.368;2023-09-30T13:10:24;99397.84;;;19.79;51.02
75317;BME280;63913;51.492;10.368;2023-09-30T13:12:51;99401.31;;;20.04;49.92
75317;BME280;63913;51.492;10.368;2023-09-30T13:15:19;99382.13;;;20.19;48.17
75317;BME280;63913;51.492;10.368;2023-09-30T13:17:44;99382.97;;;20.33;46.34
75317;BME280;63913;51.492;10.368;2023-09-30T13:20:10;99380.38;;;20.36;46.29
75317;BME280;63913;51.492;10.368;2023-09-30T13:22:37;99383.88;;;20.20;45.75